Aviation Digital Data Service (ADDS)

Output produced by METARs form (1637 UTC 25 August 2016)
found at http://aviationweather.gov/adds/metars/
 
KECG 251134Z 2512/2612 VRB04KT P6SM SKC 
     FM251700 15005KT P6SM SKC 
     FM260500 19005KT P6SM SCT060